createdAt,value
2023-04-18T00:00:44.000Z,0
2023-04-18T00:01:48.000Z,0
2023-04-18T00:02:53.000Z,0
2023-04-18T00:03:57.000Z,0
2023-04-18T00:05:01.000Z,0
2023-04-18T00:06:06.000Z,0
2023-04-18T00:07:10.000Z,0
2023-04-18T00:08:14.000Z,0
2023-04-18T00:09:18.000Z,0
2023-04-18T00:10:22.000Z,0
2023-04-18T00:11:27.000Z,0
2023-04-18T00:12:31.000Z,0
2023-04-18T00:13:35.000Z,0
2023-04-18T00:14:39.000Z,0
2023-04-18T00:15:44.000Z,0
2023-04-18T00:16:48.000Z,0
2023-04-18T00:17:52.000Z,0
2023-04-18T00:18:56.000Z,0
2023-04-18T00:20:01.000Z,0
2023-04-18T00:21:05.000Z,0
2023-04-18T00:22:09.000Z,0
2023-04-18T00:23:13.000Z,0
2023-04-18T00:24:18.000Z,0
2023-04-18T00:25:22.000Z,0
2023-04-18T00:26:26.000Z,0
2023-04-18T00:27:30.000Z,0
2023-04-18T00:28:35.000Z,0
2023-04-18T00:29:39.000Z,0
2023-04-18T00:30:43.000Z,0
2023-04-18T00:31:47.000Z,0
2023-04-18T00:32:52.000Z,0
2023-04-18T00:33:56.000Z,0
2023-04-18T00:35:00.000Z,0
2023-04-18T00:36:04.000Z,0
2023-04-18T00:37:08.000Z,0
2023-04-18T00:38:13.000Z,0
2023-04-18T00:39:17.000Z,0
2023-04-18T00:40:21.000Z,0
2023-04-18T00:41:25.000Z,0
2023-04-18T00:42:30.000Z,0
2023-04-18T00:43:34.000Z,0
2023-04-18T00:44:38.000Z,0
2023-04-18T00:45:43.000Z,0
2023-04-18T00:46:47.000Z,0
2023-04-18T00:47:51.000Z,0
2023-04-18T00:48:55.000Z,0
2023-04-18T00:49:59.000Z,0
2023-04-18T00:51:04.000Z,0
2023-04-18T00:52:08.000Z,0
2023-04-18T00:53:12.000Z,0
2023-04-18T00:54:17.000Z,0
2023-04-18T00:55:21.000Z,0
2023-04-18T00:56:25.000Z,0
2023-04-18T00:57:29.000Z,0
2023-04-18T00:58:34.000Z,0
2023-04-18T00:59:38.000Z,0
2023-04-18T01:00:42.000Z,0
2023-04-18T01:01:46.000Z,0
2023-04-18T01:02:51.000Z,0
2023-04-18T01:03:55.000Z,0
2023-04-18T01:04:59.000Z,0
2023-04-18T01:06:03.000Z,0
2023-04-18T01:07:08.000Z,0
2023-04-18T01:08:12.000Z,0
2023-04-18T01:09:16.000Z,0
2023-04-18T01:10:20.000Z,0
2023-04-18T01:11:25.000Z,0
2023-04-18T01:12:29.000Z,0
2023-04-18T01:13:33.000Z,0
2023-04-18T01:14:37.000Z,0
2023-04-18T01:15:42.000Z,0
2023-04-18T01:16:46.000Z,0
2023-04-18T01:17:50.000Z,0
2023-04-18T01:18:55.000Z,0
2023-04-18T01:19:59.000Z,0
2023-04-18T01:21:03.000Z,0
2023-04-18T01:22:07.000Z,0
2023-04-18T01:23:12.000Z,0
2023-04-18T01:24:16.000Z,0
2023-04-18T01:25:20.000Z,0
2023-04-18T01:26:24.000Z,0
2023-04-18T01:27:29.000Z,0
2023-04-18T01:28:33.000Z,0
2023-04-18T01:29:37.000Z,0
2023-04-18T01:30:41.000Z,0
2023-04-18T01:31:46.000Z,0
2023-04-18T01:32:50.000Z,0
2023-04-18T01:33:54.000Z,0
2023-04-18T01:34:58.000Z,0
2023-04-18T01:36:03.000Z,0
2023-04-18T01:37:07.000Z,0
2023-04-18T01:38:11.000Z,0
2023-04-18T01:39:15.000Z,0
2023-04-18T01:40:20.000Z,0
2023-04-18T01:41:24.000Z,0
2023-04-18T01:42:28.000Z,0
2023-04-18T01:43:33.000Z,0
2023-04-18T01:44:37.000Z,0
2023-04-18T01:45:41.000Z,0
2023-04-18T01:46:45.000Z,0
2023-04-18T01:47:50.000Z,0
2023-04-18T01:48:54.000Z,0
2023-04-18T01:49:58.000Z,0
2023-04-18T01:51:02.000Z,0
2023-04-18T01:52:07.000Z,0
2023-04-18T01:53:11.000Z,0
2023-04-18T01:54:15.000Z,0
2023-04-18T01:55:19.000Z,0
2023-04-18T01:56:24.000Z,0
2023-04-18T01:57:28.000Z,0
2023-04-18T01:58:32.000Z,0
2023-04-18T01:59:36.000Z,0
2023-04-18T02:00:41.000Z,0
2023-04-18T02:01:45.000Z,0
2023-04-18T02:02:49.000Z,0
2023-04-18T02:03:54.000Z,0
2023-04-18T02:04:58.000Z,0
2023-04-18T02:06:02.000Z,0
2023-04-18T02:07:06.000Z,0
2023-04-18T02:08:11.000Z,0
2023-04-18T02:09:15.000Z,0
2023-04-18T02:10:19.000Z,0
2023-04-18T02:11:23.000Z,0
2023-04-18T02:12:28.000Z,0
2023-04-18T02:13:32.000Z,0
2023-04-18T02:14:36.000Z,0
2023-04-18T02:15:41.000Z,0
2023-04-18T02:16:45.000Z,0
2023-04-18T02:17:49.000Z,0
2023-04-18T02:18:53.000Z,0
2023-04-18T02:19:58.000Z,0
2023-04-18T02:21:02.000Z,0
2023-04-18T02:22:06.000Z,0
2023-04-18T02:23:10.000Z,0
2023-04-18T02:24:15.000Z,0
2023-04-18T02:25:19.000Z,0
2023-04-18T02:26:23.000Z,0
2023-04-18T02:27:28.000Z,0
2023-04-18T02:28:32.000Z,0
2023-04-18T02:29:36.000Z,0
2023-04-18T02:30:41.000Z,0
2023-04-18T02:31:45.000Z,0
2023-04-18T02:32:49.000Z,0
2023-04-18T02:33:53.000Z,0
2023-04-18T02:34:58.000Z,0
2023-04-18T02:36:02.000Z,0
2023-04-18T02:37:06.000Z,0
2023-04-18T02:38:11.000Z,0
2023-04-18T02:39:15.000Z,0
2023-04-18T02:40:19.000Z,0
2023-04-18T02:41:23.000Z,0
2023-04-18T02:42:28.000Z,0
2023-04-18T02:43:32.000Z,0
2023-04-18T02:44:36.000Z,0
2023-04-18T02:45:40.000Z,0
2023-04-18T02:46:45.000Z,0
2023-04-18T02:47:49.000Z,0
2023-04-18T02:48:53.000Z,0
2023-04-18T02:49:57.000Z,0
2023-04-18T02:51:02.000Z,0
2023-04-18T02:52:06.000Z,0
2023-04-18T02:53:10.000Z,0
2023-04-18T02:54:14.000Z,0
2023-04-18T02:55:19.000Z,0
2023-04-18T02:56:23.000Z,0
2023-04-18T02:57:27.000Z,0
2023-04-18T02:58:31.000Z,0
2023-04-18T02:59:36.000Z,0
2023-04-18T03:00:40.000Z,0
2023-04-18T03:01:44.000Z,0
2023-04-18T03:02:48.000Z,0
2023-04-18T03:03:53.000Z,0
2023-04-18T03:04:57.000Z,0
2023-04-18T03:06:01.000Z,0
2023-04-18T03:07:05.000Z,0
2023-04-18T03:08:10.000Z,0
2023-04-18T03:09:14.000Z,0
2023-04-18T03:10:18.000Z,0
2023-04-18T03:11:22.000Z,0
2023-04-18T03:12:27.000Z,0
2023-04-18T03:13:31.000Z,0
2023-04-18T03:14:35.000Z,0
2023-04-18T03:15:39.000Z,0
2023-04-18T03:16:44.000Z,0
2023-04-18T03:17:48.000Z,0
2023-04-18T03:18:52.000Z,0
2023-04-18T03:19:57.000Z,0
2023-04-18T03:21:01.000Z,0
2023-04-18T03:22:05.000Z,0
2023-04-18T03:23:09.000Z,0
2023-04-18T03:24:14.000Z,0
2023-04-18T03:25:18.000Z,0
2023-04-18T03:26:22.000Z,0
2023-04-18T03:27:27.000Z,0
2023-04-18T03:28:31.000Z,0
2023-04-18T03:29:35.000Z,0
2023-04-18T03:30:39.000Z,0
2023-04-18T03:31:44.000Z,0
2023-04-18T03:32:48.000Z,0
2023-04-18T03:33:52.000Z,0
2023-04-18T03:34:56.000Z,0
2023-04-18T03:36:01.000Z,0
2023-04-18T03:37:05.000Z,0
2023-04-18T03:38:09.000Z,0
2023-04-18T03:39:13.000Z,0
2023-04-18T03:40:18.000Z,0
2023-04-18T03:41:22.000Z,0
2023-04-18T03:42:26.000Z,0
2023-04-18T03:43:31.000Z,0
2023-04-18T03:44:35.000Z,0
2023-04-18T03:45:39.000Z,0
2023-04-18T03:46:44.000Z,0
2023-04-18T03:47:48.000Z,0
2023-04-18T03:48:52.000Z,0
2023-04-18T03:49:56.000Z,0
2023-04-18T03:51:01.000Z,0
2023-04-18T03:52:05.000Z,0
2023-04-18T03:53:09.000Z,0
2023-04-18T03:54:13.000Z,0
2023-04-18T03:55:18.000Z,0
2023-04-18T03:56:22.000Z,0
2023-04-18T03:57:26.000Z,0
2023-04-18T03:58:30.000Z,0
2023-04-18T03:59:35.000Z,0
2023-04-18T04:00:39.000Z,0
2023-04-18T04:01:43.000Z,0
2023-04-18T04:02:47.000Z,0
2023-04-18T04:03:52.000Z,0
2023-04-18T04:04:56.000Z,1
2023-04-18T04:06:00.000Z,0
2023-04-18T04:07:04.000Z,1
2023-04-18T04:08:09.000Z,1
2023-04-18T04:09:13.000Z,1
2023-04-18T04:10:17.000Z,1
2023-04-18T04:11:21.000Z,1
2023-04-18T04:12:26.000Z,1
2023-04-18T04:13:30.000Z,2
2023-04-18T04:14:34.000Z,2
2023-04-18T04:15:39.000Z,2
2023-04-18T04:16:43.000Z,2
2023-04-18T04:17:47.000Z,3
2023-04-18T04:18:51.000Z,3
2023-04-18T04:19:56.000Z,3
2023-04-18T04:21:00.000Z,4
2023-04-18T04:22:04.000Z,4
2023-04-18T04:23:08.000Z,5
2023-04-18T04:24:13.000Z,6
2023-04-18T04:25:17.000Z,7
2023-04-18T04:26:21.000Z,6
2023-04-18T04:27:25.000Z,6
2023-04-18T04:28:30.000Z,6
2023-04-18T04:29:34.000Z,7
2023-04-18T04:30:38.000Z,8
2023-04-18T04:31:42.000Z,9
2023-04-18T04:32:47.000Z,10
2023-04-18T04:33:51.000Z,10
2023-04-18T04:34:55.000Z,11
2023-04-18T04:35:59.000Z,11
2023-04-18T04:37:04.000Z,10
2023-04-18T04:38:08.000Z,9
2023-04-18T04:39:12.000Z,10
2023-04-18T04:40:17.000Z,12
2023-04-18T04:41:21.000Z,12
2023-04-18T04:42:25.000Z,13
2023-04-18T04:43:29.000Z,14
2023-04-18T04:44:33.000Z,15
2023-04-18T04:45:38.000Z,14
2023-04-18T04:46:42.000Z,12
2023-04-18T04:47:46.000Z,12
2023-04-18T04:48:51.000Z,18
2023-04-18T04:49:55.000Z,19
2023-04-18T04:50:59.000Z,21
2023-04-18T04:52:03.000Z,18
2023-04-18T04:53:08.000Z,14
2023-04-18T04:54:12.000Z,17
2023-04-18T04:55:16.000Z,15
2023-04-18T04:56:21.000Z,17
2023-04-18T04:57:25.000Z,16
2023-04-18T04:58:29.000Z,20
2023-04-18T04:59:33.000Z,16
2023-04-18T05:00:38.000Z,20
2023-04-18T05:01:42.000Z,19
2023-04-18T05:02:46.000Z,22
2023-04-18T05:03:50.000Z,24
2023-04-18T05:04:55.000Z,25
2023-04-18T05:05:59.000Z,26
2023-04-18T05:07:03.000Z,26
2023-04-18T05:08:07.000Z,25
2023-04-18T05:09:12.000Z,24
2023-04-18T05:10:16.000Z,22
2023-04-18T05:11:21.000Z,19
2023-04-18T05:12:26.000Z,20
2023-04-18T05:13:30.000Z,21
2023-04-18T05:14:34.000Z,23
2023-04-18T05:15:38.000Z,23
2023-04-18T05:16:42.000Z,23
2023-04-18T05:17:47.000Z,25
2023-04-18T05:18:51.000Z,25
2023-04-18T05:19:55.000Z,26
2023-04-18T05:21:00.000Z,25
2023-04-18T05:22:04.000Z,23
2023-04-18T05:23:08.000Z,22
2023-04-18T05:24:12.000Z,23
2023-04-18T05:25:17.000Z,25
2023-04-18T05:26:21.000Z,26
2023-04-18T05:27:25.000Z,24
2023-04-18T05:28:29.000Z,22
2023-04-18T05:29:34.000Z,26
2023-04-18T05:30:38.000Z,29
2023-04-18T05:31:42.000Z,34
2023-04-18T05:32:46.000Z,36
2023-04-18T05:33:51.000Z,36
2023-04-18T05:34:55.000Z,39
2023-04-18T05:35:59.000Z,43
2023-04-18T05:37:04.000Z,38
2023-04-18T05:38:08.000Z,39
2023-04-18T05:39:12.000Z,45
2023-04-18T05:40:16.000Z,42
2023-04-18T05:41:21.000Z,43
2023-04-18T05:42:25.000Z,42
2023-04-18T05:43:29.000Z,36
2023-04-18T05:44:33.000Z,38
2023-04-18T05:45:38.000Z,38
2023-04-18T05:46:42.000Z,42
2023-04-18T05:47:46.000Z,39
2023-04-18T05:48:50.000Z,40
2023-04-18T05:49:55.000Z,45
2023-04-18T05:50:59.000Z,43
2023-04-18T05:52:03.000Z,42
2023-04-18T05:53:08.000Z,41
2023-04-18T05:54:12.000Z,47
2023-04-18T05:55:16.000Z,46
2023-04-18T05:56:20.000Z,48
2023-04-18T05:57:25.000Z,54
2023-04-18T05:58:29.000Z,64
2023-04-18T05:59:33.000Z,71
2023-04-18T06:00:37.000Z,80
2023-04-18T06:01:42.000Z,88
2023-04-18T06:02:46.000Z,93
2023-04-18T06:03:50.000Z,87
2023-04-18T06:04:54.000Z,73
2023-04-18T06:05:59.000Z,81
2023-04-18T06:07:03.000Z,97
2023-04-18T06:08:07.000Z,111
2023-04-18T06:09:12.000Z,117
2023-04-18T06:10:16.000Z,118
2023-04-18T06:11:20.000Z,107
2023-04-18T06:12:24.000Z,86
2023-04-18T06:13:29.000Z,97
2023-04-18T06:14:33.000Z,113
2023-04-18T06:15:37.000Z,113
2023-04-18T06:16:42.000Z,134
2023-04-18T06:17:46.000Z,149
2023-04-18T06:18:50.000Z,113
2023-04-18T06:19:55.000Z,78
2023-04-18T06:20:59.000Z,68
2023-04-18T06:22:03.000Z,59
2023-04-18T06:23:08.000Z,53
2023-04-18T06:24:12.000Z,55
2023-04-18T06:25:16.000Z,70
2023-04-18T06:26:20.000Z,109
2023-04-18T06:27:25.000Z,105
2023-04-18T06:28:29.000Z,93
2023-04-18T06:29:33.000Z,80
2023-04-18T06:30:38.000Z,71
2023-04-18T06:31:42.000Z,71
2023-04-18T06:32:46.000Z,78
2023-04-18T06:33:50.000Z,84
2023-04-18T06:34:55.000Z,84
2023-04-18T06:35:59.000Z,93
2023-04-18T06:37:03.000Z,120
2023-04-18T06:38:07.000Z,149
2023-04-18T06:39:12.000Z,146
2023-04-18T06:40:16.000Z,134
2023-04-18T06:41:20.000Z,120
2023-04-18T06:42:24.000Z,102
2023-04-18T06:43:29.000Z,96
2023-04-18T06:44:33.000Z,92
2023-04-18T06:45:37.000Z,83
2023-04-18T06:46:41.000Z,83
2023-04-18T06:47:46.000Z,78
2023-04-18T06:48:50.000Z,82
2023-04-18T06:49:54.000Z,66
2023-04-18T06:50:59.000Z,57
2023-04-18T06:52:03.000Z,61
2023-04-18T06:53:07.000Z,64
2023-04-18T06:54:11.000Z,62
2023-04-18T06:55:16.000Z,61
2023-04-18T06:56:20.000Z,67
2023-04-18T06:57:24.000Z,70
2023-04-18T06:58:28.000Z,83
2023-04-18T06:59:33.000Z,84
2023-04-18T07:00:37.000Z,82
2023-04-18T07:01:41.000Z,86
2023-04-18T07:02:45.000Z,88
2023-04-18T07:03:50.000Z,101
2023-04-18T07:04:54.000Z,104
2023-04-18T07:05:58.000Z,113
2023-04-18T07:07:03.000Z,130
2023-04-18T07:08:07.000Z,138
2023-04-18T07:09:11.000Z,142
2023-04-18T07:10:15.000Z,144
2023-04-18T07:11:20.000Z,148
2023-04-18T07:12:24.000Z,159
2023-04-18T07:13:28.000Z,138
2023-04-18T07:14:32.000Z,146
2023-04-18T07:15:37.000Z,142
2023-04-18T07:16:41.000Z,136
2023-04-18T07:17:45.000Z,129
2023-04-18T07:18:49.000Z,128
2023-04-18T07:19:54.000Z,130
2023-04-18T07:20:58.000Z,126
2023-04-18T07:22:02.000Z,128
2023-04-18T07:23:06.000Z,143
2023-04-18T07:24:11.000Z,148
2023-04-18T07:25:15.000Z,149
2023-04-18T07:26:19.000Z,145
2023-04-18T07:27:23.000Z,140
2023-04-18T07:28:28.000Z,146
2023-04-18T07:29:32.000Z,147
2023-04-18T07:30:36.000Z,142
2023-04-18T07:31:40.000Z,137
2023-04-18T07:32:45.000Z,137
2023-04-18T07:33:49.000Z,129
2023-04-18T07:34:53.000Z,125
2023-04-18T07:35:57.000Z,127
2023-04-18T07:37:02.000Z,126
2023-04-18T07:38:06.000Z,146
2023-04-18T07:39:10.000Z,137
2023-04-18T07:40:14.000Z,122
2023-04-18T07:41:19.000Z,115
2023-04-18T07:42:23.000Z,121
2023-04-18T07:43:27.000Z,127
2023-04-18T07:44:32.000Z,136
2023-04-18T07:45:36.000Z,149
2023-04-18T07:46:40.000Z,158
2023-04-18T07:47:44.000Z,146
2023-04-18T07:48:49.000Z,126
2023-04-18T07:49:53.000Z,127
2023-04-18T07:50:57.000Z,119
2023-04-18T07:52:02.000Z,116
2023-04-18T07:53:06.000Z,115
2023-04-18T07:54:10.000Z,124
2023-04-18T07:55:15.000Z,114
2023-04-18T07:56:19.000Z,125
2023-04-18T07:57:23.000Z,129
2023-04-18T07:58:27.000Z,116
2023-04-18T07:59:32.000Z,116
2023-04-18T08:00:36.000Z,126
2023-04-18T08:01:40.000Z,131
2023-04-18T08:02:44.000Z,120
2023-04-18T08:03:49.000Z,116
2023-04-18T08:04:53.000Z,115
2023-04-18T08:05:57.000Z,119
2023-04-18T08:07:01.000Z,120
2023-04-18T08:08:06.000Z,126
2023-04-18T08:09:10.000Z,137
2023-04-18T08:10:14.000Z,147
2023-04-18T08:11:19.000Z,154
2023-04-18T08:12:23.000Z,162
2023-04-18T08:13:27.000Z,159
2023-04-18T08:14:31.000Z,162
2023-04-18T08:15:36.000Z,168
2023-04-18T08:16:40.000Z,179
2023-04-18T08:17:44.000Z,196
2023-04-18T08:18:48.000Z,218
2023-04-18T08:19:53.000Z,221
2023-04-18T08:20:57.000Z,195
2023-04-18T08:22:01.000Z,190
2023-04-18T08:23:05.000Z,198
2023-04-18T08:24:10.000Z,204
2023-04-18T08:25:14.000Z,199
2023-04-18T08:26:18.000Z,199
2023-04-18T08:27:22.000Z,186
2023-04-18T08:28:27.000Z,176
2023-04-18T08:29:31.000Z,163
2023-04-18T08:30:35.000Z,153
2023-04-18T08:31:39.000Z,141
2023-04-18T08:32:44.000Z,133
2023-04-18T08:33:48.000Z,124
2023-04-18T08:34:52.000Z,117
2023-04-18T08:35:57.000Z,115
2023-04-18T08:37:01.000Z,104
2023-04-18T08:38:05.000Z,108
2023-04-18T08:39:09.000Z,116
2023-04-18T08:40:14.000Z,116
2023-04-18T08:41:18.000Z,114
2023-04-18T08:42:22.000Z,115
2023-04-18T08:43:27.000Z,111
2023-04-18T08:44:31.000Z,104
2023-04-18T08:45:35.000Z,104
2023-04-18T08:46:39.000Z,106
2023-04-18T08:47:44.000Z,112
2023-04-18T08:48:48.000Z,108
2023-04-18T08:49:52.000Z,107
2023-04-18T08:50:56.000Z,108
2023-04-18T08:52:01.000Z,108
2023-04-18T08:53:05.000Z,116
2023-04-18T08:54:09.000Z,120
2023-04-18T08:55:13.000Z,124
2023-04-18T08:56:18.000Z,125
2023-04-18T08:57:22.000Z,124
2023-04-18T08:58:26.000Z,122
2023-04-18T08:59:30.000Z,130
2023-04-18T09:00:35.000Z,133
2023-04-18T09:01:39.000Z,138
2023-04-18T09:02:43.000Z,139
2023-04-18T09:03:47.000Z,137
2023-04-18T09:04:52.000Z,135
2023-04-18T09:05:56.000Z,139
2023-04-18T09:07:00.000Z,136
2023-04-18T09:08:05.000Z,128
2023-04-18T09:09:09.000Z,126
2023-04-18T09:10:13.000Z,119
2023-04-18T09:11:18.000Z,115
2023-04-18T09:12:22.000Z,133
2023-04-18T09:13:26.000Z,140
2023-04-18T09:14:30.000Z,141
2023-04-18T09:15:35.000Z,135
2023-04-18T09:16:39.000Z,139
2023-04-18T09:17:43.000Z,133
2023-04-18T09:18:48.000Z,132
2023-04-18T09:19:52.000Z,155
2023-04-18T09:20:56.000Z,154
2023-04-18T09:22:00.000Z,159
2023-04-18T09:23:05.000Z,160
2023-04-18T09:24:09.000Z,165
2023-04-18T09:25:13.000Z,167
2023-04-18T09:26:18.000Z,161
2023-04-18T09:27:22.000Z,171
2023-04-18T09:28:26.000Z,165
2023-04-18T09:29:31.000Z,162
2023-04-18T09:30:35.000Z,174
2023-04-18T09:31:39.000Z,184
2023-04-18T09:32:43.000Z,183
2023-04-18T09:33:48.000Z,183
2023-04-18T09:34:52.000Z,195
2023-04-18T09:35:56.000Z,197
2023-04-18T09:37:01.000Z,183
2023-04-18T09:38:05.000Z,187
2023-04-18T09:39:09.000Z,210
2023-04-18T09:40:13.000Z,227
2023-04-18T09:41:18.000Z,222
2023-04-18T09:42:22.000Z,283
2023-04-18T09:43:26.000Z,319
2023-04-18T09:44:30.000Z,266
2023-04-18T09:45:35.000Z,511
2023-04-18T09:46:39.000Z,286
2023-04-18T09:47:43.000Z,246
2023-04-18T09:48:47.000Z,212
2023-04-18T09:49:52.000Z,193
2023-04-18T09:50:56.000Z,190
2023-04-18T09:52:00.000Z,181
2023-04-18T09:53:04.000Z,196
2023-04-18T09:54:09.000Z,206
2023-04-18T09:55:13.000Z,246
2023-04-18T09:56:17.000Z,268
2023-04-18T09:57:21.000Z,283
2023-04-18T09:58:26.000Z,317
2023-04-18T09:59:30.000Z,290
2023-04-18T10:00:34.000Z,247
2023-04-18T10:01:39.000Z,219
2023-04-18T10:02:43.000Z,216
2023-04-18T10:03:47.000Z,206
2023-04-18T10:04:51.000Z,195
2023-04-18T10:05:56.000Z,194
2023-04-18T10:07:00.000Z,189
2023-04-18T10:08:04.000Z,186
2023-04-18T10:09:09.000Z,197
2023-04-18T10:10:13.000Z,224
2023-04-18T10:11:17.000Z,234
2023-04-18T10:12:22.000Z,246
2023-04-18T10:13:26.000Z,263
2023-04-18T10:14:30.000Z,265
2023-04-18T10:15:34.000Z,275
2023-04-18T10:16:39.000Z,285
2023-04-18T10:17:43.000Z,296
2023-04-18T10:18:47.000Z,304
2023-04-18T10:19:52.000Z,310
2023-04-18T10:20:56.000Z,319
2023-04-18T10:22:00.000Z,334
2023-04-18T10:23:05.000Z,354
2023-04-18T10:24:09.000Z,371
2023-04-18T10:25:13.000Z,386
2023-04-18T10:26:17.000Z,382
2023-04-18T10:27:22.000Z,356
2023-04-18T10:28:26.000Z,340
2023-04-18T10:29:30.000Z,326
2023-04-18T10:30:35.000Z,313
2023-04-18T10:31:39.000Z,327
2023-04-18T10:32:43.000Z,321
2023-04-18T10:33:47.000Z,294
2023-04-18T10:34:52.000Z,264
2023-04-18T10:35:56.000Z,255
2023-04-18T10:37:00.000Z,231
2023-04-18T10:38:05.000Z,236
2023-04-18T10:39:09.000Z,252
2023-04-18T10:40:13.000Z,259
2023-04-18T10:41:17.000Z,263
2023-04-18T10:42:22.000Z,236
2023-04-18T10:43:26.000Z,197
2023-04-18T10:44:30.000Z,196
2023-04-18T10:45:34.000Z,200
2023-04-18T10:46:39.000Z,191
2023-04-18T10:47:43.000Z,206
2023-04-18T10:48:47.000Z,232
2023-04-18T10:49:52.000Z,276
2023-04-18T10:50:56.000Z,353
2023-04-18T10:52:00.000Z,382
2023-04-18T10:53:05.000Z,383
2023-04-18T10:54:09.000Z,306
2023-04-18T10:55:13.000Z,264
2023-04-18T10:56:17.000Z,255
2023-04-18T10:57:22.000Z,269
2023-04-18T10:58:26.000Z,296
2023-04-18T10:59:30.000Z,251
2023-04-18T11:00:34.000Z,231
2023-04-18T11:01:39.000Z,237
2023-04-18T11:02:43.000Z,232
2023-04-18T11:03:47.000Z,233
2023-04-18T11:04:52.000Z,261
2023-04-18T11:05:56.000Z,272
2023-04-18T11:07:00.000Z,270
2023-04-18T11:08:05.000Z,333
2023-04-18T11:09:09.000Z,349
2023-04-18T11:10:13.000Z,287
2023-04-18T11:11:18.000Z,258
2023-04-18T11:12:22.000Z,206
2023-04-18T11:13:26.000Z,172
2023-04-18T11:14:31.000Z,147
2023-04-18T11:15:35.000Z,149
2023-04-18T11:16:39.000Z,152
2023-04-18T11:17:43.000Z,143
2023-04-18T11:18:48.000Z,138
2023-04-18T11:19:52.000Z,148
2023-04-18T11:20:56.000Z,177
2023-04-18T11:22:01.000Z,201
2023-04-18T11:23:05.000Z,175
2023-04-18T11:24:09.000Z,156
2023-04-18T11:25:13.000Z,143
2023-04-18T11:26:18.000Z,134
2023-04-18T11:27:22.000Z,130
2023-04-18T11:28:26.000Z,121
2023-04-18T11:29:30.000Z,125
2023-04-18T11:30:35.000Z,138
2023-04-18T11:31:39.000Z,142
2023-04-18T11:32:43.000Z,135
2023-04-18T11:33:48.000Z,121
2023-04-18T11:34:52.000Z,101
2023-04-18T11:35:56.000Z,108
2023-04-18T11:37:00.000Z,126
2023-04-18T11:38:05.000Z,144
2023-04-18T11:39:09.000Z,149
2023-04-18T11:40:13.000Z,155
2023-04-18T11:41:18.000Z,152
2023-04-18T11:42:22.000Z,127
2023-04-18T11:43:26.000Z,103
2023-04-18T11:44:31.000Z,82
2023-04-18T11:45:35.000Z,84
2023-04-18T11:46:39.000Z,93
2023-04-18T11:47:44.000Z,88
2023-04-18T11:48:48.000Z,85
2023-04-18T11:49:52.000Z,95
2023-04-18T11:50:56.000Z,121
2023-04-18T11:52:01.000Z,127
2023-04-18T11:53:05.000Z,121
2023-04-18T11:54:09.000Z,149
2023-04-18T11:55:13.000Z,130
2023-04-18T11:56:18.000Z,105
2023-04-18T11:57:22.000Z,113
2023-04-18T11:58:26.000Z,131
2023-04-18T11:59:30.000Z,155
2023-04-18T12:00:35.000Z,190
2023-04-18T12:01:39.000Z,193
2023-04-18T12:02:43.000Z,148
2023-04-18T12:03:47.000Z,121
2023-04-18T12:04:52.000Z,105
2023-04-18T12:05:56.000Z,97
2023-04-18T12:07:00.000Z,83
2023-04-18T12:08:05.000Z,80
2023-04-18T12:09:09.000Z,77
2023-04-18T12:10:13.000Z,73
2023-04-18T12:11:17.000Z,74
2023-04-18T12:12:22.000Z,66
2023-04-18T12:13:26.000Z,59
2023-04-18T12:14:30.000Z,63
2023-04-18T12:15:34.000Z,72
2023-04-18T12:16:39.000Z,71
2023-04-18T12:17:43.000Z,68
2023-04-18T12:18:47.000Z,67
2023-04-18T12:19:52.000Z,64
2023-04-18T12:20:56.000Z,60
2023-04-18T12:22:00.000Z,52
2023-04-18T12:23:04.000Z,47
2023-04-18T12:24:09.000Z,45
2023-04-18T12:25:13.000Z,46
2023-04-18T12:26:17.000Z,48
2023-04-18T12:27:22.000Z,47
2023-04-18T12:28:26.000Z,47
2023-04-18T12:29:30.000Z,49
2023-04-18T12:30:34.000Z,54
2023-04-18T12:31:39.000Z,55
2023-04-18T12:32:43.000Z,54
2023-04-18T12:33:48.000Z,52
2023-04-18T12:34:52.000Z,53
2023-04-18T12:35:56.000Z,52
2023-04-18T12:37:01.000Z,50
2023-04-18T12:38:05.000Z,49
2023-04-18T12:39:09.000Z,49
2023-04-18T12:40:14.000Z,48
2023-04-18T12:41:18.000Z,47
2023-04-18T12:42:22.000Z,46
2023-04-18T12:43:27.000Z,47
2023-04-18T12:44:31.000Z,49
2023-04-18T12:45:35.000Z,51
2023-04-18T12:46:39.000Z,54
2023-04-18T12:47:44.000Z,60
2023-04-18T12:48:48.000Z,64
2023-04-18T12:49:52.000Z,67
2023-04-18T12:50:57.000Z,70
2023-04-18T12:52:01.000Z,73
2023-04-18T12:53:05.000Z,77
2023-04-18T12:54:09.000Z,80
2023-04-18T12:55:13.000Z,83
2023-04-18T12:56:18.000Z,79
2023-04-18T12:57:22.000Z,75
2023-04-18T12:58:26.000Z,75
2023-04-18T12:59:30.000Z,69
2023-04-18T13:00:35.000Z,55
2023-04-18T13:01:39.000Z,49
2023-04-18T13:02:43.000Z,48
2023-04-18T13:03:47.000Z,44
2023-04-18T13:04:52.000Z,42
2023-04-18T13:05:56.000Z,40
2023-04-18T13:07:00.000Z,40
2023-04-18T13:08:05.000Z,36
2023-04-18T13:09:09.000Z,36
2023-04-18T13:10:13.000Z,38
2023-04-18T13:11:17.000Z,40
2023-04-18T13:12:23.000Z,38
2023-04-18T13:13:27.000Z,38
2023-04-18T13:14:31.000Z,38
2023-04-18T13:15:35.000Z,38
2023-04-18T13:16:40.000Z,37
2023-04-18T13:17:44.000Z,40
2023-04-18T13:18:48.000Z,44
2023-04-18T13:19:52.000Z,47
2023-04-18T13:20:57.000Z,49
2023-04-18T13:22:01.000Z,48
2023-04-18T13:23:05.000Z,48
2023-04-18T13:24:10.000Z,49
2023-04-18T13:25:14.000Z,49
2023-04-18T13:26:18.000Z,51
2023-04-18T13:27:22.000Z,50
2023-04-18T13:28:27.000Z,49
2023-04-18T13:29:31.000Z,48
2023-04-18T13:30:35.000Z,47
2023-04-18T13:31:39.000Z,46
2023-04-18T13:32:44.000Z,44
2023-04-18T13:33:49.000Z,43
2023-04-18T13:34:59.000Z,46
2023-04-18T13:36:03.000Z,48
2023-04-18T13:37:08.000Z,51
2023-04-18T13:38:12.000Z,51
2023-04-18T13:39:16.000Z,53
2023-04-18T13:40:21.000Z,54
2023-04-18T13:41:25.000Z,55
2023-04-18T13:42:29.000Z,54
2023-04-18T13:43:34.000Z,53
2023-04-18T13:44:38.000Z,56
2023-04-18T13:45:42.000Z,56
2023-04-18T13:46:46.000Z,57
2023-04-18T13:47:51.000Z,54
2023-04-18T13:48:55.000Z,51
2023-04-18T13:49:59.000Z,54
2023-04-18T13:51:04.000Z,61
2023-04-18T13:52:08.000Z,61
2023-04-18T13:53:12.000Z,58
2023-04-18T13:54:17.000Z,58
2023-04-18T13:55:21.000Z,60
2023-04-18T13:56:25.000Z,60
2023-04-18T13:57:29.000Z,63
2023-04-18T13:58:34.000Z,65
2023-04-18T13:59:38.000Z,68
2023-04-18T14:00:42.000Z,72
2023-04-18T14:01:47.000Z,80
2023-04-18T14:02:51.000Z,80
2023-04-18T14:03:55.000Z,81
2023-04-18T14:04:59.000Z,73
2023-04-18T14:06:04.000Z,71
2023-04-18T14:07:08.000Z,81
2023-04-18T14:08:12.000Z,78
2023-04-18T14:09:17.000Z,68
2023-04-18T14:10:21.000Z,63
2023-04-18T14:11:25.000Z,57
2023-04-18T14:12:29.000Z,57
2023-04-18T14:13:34.000Z,58
2023-04-18T14:14:38.000Z,54
2023-04-18T14:15:42.000Z,51
2023-04-18T14:16:46.000Z,50
2023-04-18T14:17:51.000Z,53
2023-04-18T14:18:55.000Z,72
2023-04-18T14:19:59.000Z,86
2023-04-18T14:21:03.000Z,72
2023-04-18T14:22:08.000Z,84
2023-04-18T14:23:12.000Z,75
2023-04-18T14:24:16.000Z,68
2023-04-18T14:25:20.000Z,71
2023-04-18T14:26:25.000Z,81
2023-04-18T14:27:29.000Z,90
2023-04-18T14:28:33.000Z,96
2023-04-18T14:29:37.000Z,100
2023-04-18T14:30:42.000Z,85
2023-04-18T14:31:46.000Z,80
2023-04-18T14:32:50.000Z,75
2023-04-18T14:33:55.000Z,69
2023-04-18T14:34:59.000Z,69
2023-04-18T14:36:03.000Z,59
2023-04-18T14:37:07.000Z,49
2023-04-18T14:38:12.000Z,48
2023-04-18T14:39:16.000Z,58
2023-04-18T14:40:20.000Z,55
2023-04-18T14:41:24.000Z,49
2023-04-18T14:42:29.000Z,56
2023-04-18T14:43:33.000Z,72
2023-04-18T14:44:37.000Z,74
2023-04-18T14:45:41.000Z,76
2023-04-18T14:46:46.000Z,79
2023-04-18T14:47:50.000Z,71
2023-04-18T14:48:54.000Z,59
2023-04-18T14:49:59.000Z,54
2023-04-18T14:51:03.000Z,47
2023-04-18T14:52:07.000Z,48
2023-04-18T14:53:11.000Z,48
2023-04-18T14:54:16.000Z,45
2023-04-18T14:55:20.000Z,52
2023-04-18T14:56:24.000Z,53
2023-04-18T14:57:29.000Z,42
2023-04-18T14:58:33.000Z,41
2023-04-18T14:59:37.000Z,37
2023-04-18T15:00:41.000Z,36
2023-04-18T15:01:46.000Z,44
2023-04-18T15:02:50.000Z,46
2023-04-18T15:03:54.000Z,55
2023-04-18T15:04:58.000Z,64
2023-04-18T15:06:03.000Z,62
2023-04-18T15:07:07.000Z,59
2023-04-18T15:08:11.000Z,59
2023-04-18T15:09:15.000Z,63
2023-04-18T15:10:20.000Z,59
2023-04-18T15:11:24.000Z,60
2023-04-18T15:12:28.000Z,60
2023-04-18T15:13:33.000Z,55
2023-04-18T15:14:37.000Z,52
2023-04-18T15:15:41.000Z,42